< < Back
Terminal Aerodrome Forecast


Current Version              Previous Versions:   1  2  3  4  5  6  7  8  9  

Terminal Aerodrome Forecast

600
FTUS42 KGSP 232335
TAFGSP
TAF
KGSP 232335Z 2400/2424 VRB04KT P6SM FEW060 BKN250
     FM240300 VRB03KT P6SM SCT250
     FM241600 21006KT P6SM FEW060 SCT250=



Latest METAR

705
SAUS70 KWBC 240800 RRL
MTRGSP
METAR KGSP 240753Z AUTO 22004KT 10SM CLR 23/22 A3002 RMK AO2 SLP150
T02280217


USA.gov is the U.S. government's official web portal to all federal, state and local government web resources and services.